Time;durP1;ratioP1;P1;durP2;ratioP2;P2;SDS_P1;SDS_P2;PMS_P1;PMS_P2;Temp;Humidity;BMP_temperature;BMP_pressure;BME280_temperature;BME280_humidity;BME280_pressure;Samples;Min_cycle;Max_cycle;Signal;HPM_P1;HPM_P2
2023/06/28 04:30:32;;;;;;;;;;;;;;;;;;;;;
2023/06/28 04:33:53;;;;;;;0.80;0.30;;;;;;;-145.06;0.00;60892.56;5901024;23;20022;-93
2023/06/28 04:36:49;;;;;;;0.25;0.20;;;;;;;-145.06;0.00;60892.56;5890150;23;20018;-93
2023/06/28 04:39:36;;;;;;;0.50;0.30;;;;;;;-145.06;0.00;60892.56;5889669;23;20011;-91
2023/06/28 04:42:21;;;;;;;0.30;0.30;;;;;;;-145.06;0.00;60892.56;5891818;23;20077;-92
2023/06/28 04:45:36;;;;;;;0.70;0.40;;;;;;;-145.06;0.00;60892.56;5892034;23;20010;-93
2023/06/28 04:48:33;;;;;;;1.30;0.40;;;;;;;-145.06;0.00;60892.56;5892322;23;20006;-94
2023/06/28 04:51:23;;;;;;;0.40;0.40;;;;;;;-145.06;0.00;60892.56;5890598;23;20033;-92
2023/06/28 04:54:08;;;;;;;2.63;0.32;;;;;;;-145.06;0.00;60892.56;5890625;23;20010;-92
2023/06/28 04:57:15;;;;;;;0.60;0.40;;;;;;;17.25;0.00;60892.56;5890119;23;20453;-94
2023/06/28 04:59:57;;;;;;;2.00;0.22;;;;;;;-145.06;0.00;60892.56;5890810;23;20010;-92
2023/06/28 05:02:50;;;;;;;1.75;0.47;;;;;;;-145.06;0.00;60892.56;5890967;23;20036;-91
2023/06/28 05:05:29;;;;;;;0.70;0.40;;;;;;;-145.06;0.00;60892.56;5889550;23;20314;-91
2023/06/28 05:08:09;;;;;;;0.60;0.40;;;;;;;-145.06;0.00;60892.56;5889884;23;20006;-92
2023/06/28 05:10:48;;;;;;;;;;;;;;;-145.06;0.00;60892.56;5910352;23;20006;-92
2023/06/28 05:28:46;;;;;;;0.90;0.40;;;;;;;187.52;0.00;60892.56;5958628;23;20228;-92
2023/06/28 05:31:28;;;;;;;0.93;0.30;;;;;;;-145.06;0.00;60892.56;5925097;23;20005;-92
2023/06/28 05:34:20;;;;;;;0.40;0.20;;;;;;;-145.06;0.00;60892.56;5925729;23;20013;-93
2023/06/28 05:37:08;;;;;;;0.68;0.40;;;;;;;-145.06;0.00;60892.56;5924893;23;20085;-92
2023/06/28 05:39:50;;;;;;;0.43;0.30;;;;;;;-145.06;0.00;60892.56;5924952;23;20001;-91
2023/06/28 05:42:33;;;;;;;1.00;0.40;;;;;;;-145.06;0.00;60892.56;5925267;23;20005;-92
2023/06/28 05:45:12;;;;;;;0.60;0.30;;;;;;;-145.06;0.00;60892.56;5944698;23;20037;-93
2023/06/28 05:48:07;;;;;;;2.70;0.30;;;;;;;-145.06;0.00;60892.56;5923816;23;20006;-93
2023/06/28 05:50:52;;;;;;;0.60;0.40;;;;;;;-145.06;0.00;60892.56;5924249;23;20009;-92
2023/06/28 05:53:37;;;;;;;1.00;0.30;;;;;;;-145.06;0.00;60892.56;5943797;23;20014;-93
2023/06/28 05:56:42;;;;;;;2.67;0.45;;;;;;;-145.06;0.00;60892.56;5945482;23;20061;-93
2023/06/28 05:59:31;;;;;;;0.90;0.30;;;;;;;-145.06;0.00;60892.56;5924555;23;20073;-92
2023/06/28 06:02:10;;;;;;;0.55;0.35;;;;;;;-145.06;0.00;60892.56;5945652;23;20002;-93
2023/06/28 06:04:57;;;;;;;1.52;0.50;;;;;;;-145.06;0.00;60892.56;5946046;23;20010;-93
2023/06/28 06:07:57;;;;;;;1.17;0.40;;;;;;;-145.06;0.00;60892.56;5945594;23;20009;-92
2023/06/28 06:10:41;;;;;;;0.85;0.30;;;;;;;-145.06;0.00;60892.56;5945090;23;20002;-92
2023/06/28 06:13:28;;;;;;;1.15;0.30;;;;;;;-145.06;0.00;60892.56;5924541;23;20436;-92
2023/06/28 06:16:21;;;;;;;;;;;;;;;;;;;;;
2023/06/28 06:19:05;;;;;;;0.57;0.40;;;;;;;-145.06;0.00;60892.56;5956097;23;20005;-91
2023/06/28 06:21:45;;;;;;;0.50;0.30;;;;;;;-145.06;0.00;60892.56;5924102;23;20429;-93
2023/06/28 06:24:27;;;;;;;0.35;0.32;;;;;;;187.52;0.00;60892.56;5925254;23;20009;-92
2023/06/28 06:27:41;;;;;;;1.23;0.63;;;;;;;-145.06;0.00;60892.56;5924300;23;20001;-94
2023/06/28 06:30:37;;;;;;;0.40;0.30;;;;;;;-145.06;0.00;60892.56;5896192;23;20037;-92
2023/06/28 06:33:28;;;;;;;0.30;0.30;;;;;;;21.08;0.00;60892.56;5894840;23;20006;-93
2023/06/28 06:36:19;;;;;;;0.88;0.40;;;;;;;-145.06;0.00;60892.56;5895600;23;20006;-95
2023/06/28 06:39:11;;;;;;;0.50;0.30;;;;;;;187.52;0.00;60892.56;5896364;23;20009;-93
2023/06/28 06:42:01;;;;;;;1.30;0.40;;;;;;;-145.06;0.00;60892.56;5894512;23;20009;-94
2023/06/28 06:44:48;;;;;;;0.60;0.40;;;;;;;-145.06;0.00;60892.56;5895976;23;20030;-92
2023/06/28 06:47:41;;;;;;;1.42;0.68;;;;;;;-145.06;0.00;60892.56;5896047;23;20010;-92
2023/06/28 06:50:33;;;;;;;0.50;0.30;;;;;;;-145.06;0.00;60892.56;5896125;23;20006;-92
2023/06/28 06:53:39;;;;;;;0.57;0.40;;;;;;;-145.06;0.00;60892.56;5895806;23;20018;-92
2023/06/28 06:56:33;;;;;;;0.95;0.40;;;;;;;-145.06;0.00;60892.56;5895595;23;20006;-94
2023/06/28 06:59:26;;;;;;;;;;;;;;;;;;;;;
2023/06/28 07:02:08;;;;;;;0.28;0.20;;;;;;;-145.06;0.00;60892.56;5927760;23;20006;-95
2023/06/28 07:04:55;;;;;;;0.20;0.20;;;;;;;18.19;0.00;60892.56;5896333;23;20010;-95
2023/06/28 07:07:34;;;;;;;0.52;0.40;;;;;;;18.48;0.00;60892.56;5896111;23;20274;-92
2023/06/28 07:10:17;;;;;;;0.80;0.60;;;;;;;-145.06;0.00;60892.56;5895260;23;20010;-92
2023/06/28 07:13:09;;;;;;;0.57;0.30;;;;;;;18.21;0.00;60892.56;5895285;23;20006;-93
2023/06/28 07:15:53;;;;;;;0.40;0.30;;;;;;;18.22;0.00;60892.56;5895418;23;20006;-93
2023/06/28 07:18:35;;;;;;;0.85;0.40;;;;;;;18.23;0.00;60892.56;5895386;23;20018;-93
2023/06/28 07:21:15;;;;;;;0.80;0.40;;;;;;;18.24;0.00;60892.56;5895382;23;20006;-94
2023/06/28 07:23:57;;;;;;;1.42;0.30;;;;;;;18.26;0.00;60892.56;5895510;23;20017;-93
2023/06/28 07:26:39;;;;;;;0.70;0.40;;;;;;;-145.06;0.00;60892.56;5895065;23;20006;-92
2023/06/28 07:29:18;;;;;;;0.60;0.32;;;;;;;18.27;0.00;60892.56;5906178;23;20033;-93
2023/06/28 07:32:01;;;;;;;0.43;0.30;;;;;;;18.29;0.00;60892.56;5896054;23;20314;-93
2023/06/28 07:34:43;;;;;;;0.50;0.30;;;;;;;18.31;0.00;60892.56;5895548;23;20006;-93
2023/06/28 07:37:22;;;;;;;0.60;0.40;;;;;;;18.32;0.00;60892.56;5926383;23;20014;-93
2023/06/28 07:40:01;;;;;;;0.32;0.30;;;;;;;18.34;0.00;60892.56;5895107;23;20005;-92
2023/06/28 07:42:45;;;;;;;0.50;0.35;;;;;;;18.36;0.00;60892.56;5895258;23;20002;-93
2023/06/28 07:45:27;;;;;;;0.75;0.40;;;;;;;18.37;0.00;60892.56;5894805;23;20006;-92
2023/06/28 07:48:09;;;;;;;0.70;0.38;;;;;;;18.38;0.00;60892.56;5895361;23;20453;-93
2023/06/28 07:50:48;;;;;;;0.98;0.40;;;;;;;18.41;0.00;60892.56;5893760;23;20006;-92
2023/06/28 07:53:31;;;;;;;0.30;0.30;;;;;;;-145.06;0.00;60892.56;5895010;23;20093;-92
2023/06/28 07:56:10;;;;;;;1.02;0.40;;;;;;;-145.06;0.00;60892.56;5895098;23;20009;-92
2023/06/28 07:58:54;;;;;;;0.35;0.30;;;;;;;-145.06;0.00;60892.56;5894808;23;20005;-92
2023/06/28 08:01:35;;;;;;;0.60;0.20;;;;;;;-145.06;0.00;60892.56;5894875;23;19998;-91
2023/06/28 08:04:17;;;;;;;1.00;0.60;;;;;;;-145.06;0.00;60892.56;5894819;23;20409;-91
2023/06/28 08:06:59;;;;;;;0.40;0.38;;;;;;;-145.06;0.00;60892.56;5895345;23;20009;-92
2023/06/28 08:09:46;;;;;;;1.00;0.32;;;;;;;-145.06;0.00;60892.56;5894459;23;20009;-93
2023/06/28 08:12:38;;;;;;;0.88;0.52;;;;;;;-145.06;0.00;60892.56;5894495;23;20010;-92
2023/06/28 08:15:20;;;;;;;1.92;0.75;;;;;;;-145.06;0.00;60892.56;5895037;23;20010;-91
2023/06/28 08:18:12;;;;;;;0.45;0.45;;;;;;;-145.06;0.00;60892.56;5894162;23;20318;-93
2023/06/28 08:20:51;;;;;;;0.65;0.32;;;;;;;-145.06;0.00;60892.56;5900232;23;20010;-94
2023/06/28 08:51:18;;;;;;;0.55;0.40;;;;;;;-145.06;0.00;60892.56;5975968;23;20230;-93
2023/06/28 08:53:58;;;;;;;0.60;0.40;;;;;;;-145.06;0.00;60892.56;5954099;23;20013;-95
2023/06/28 08:57:03;;;;;;;0.82;0.50;;;;;;;-145.06;0.00;60892.56;5952520;23;20009;-95
2023/06/28 08:59:46;;;;;;;1.25;0.40;;;;;;;-145.06;0.00;60892.56;5952342;23;20005;-95
2023/06/28 09:02:30;;;;;;;0.38;0.30;;;;;;;-145.06;0.00;60892.56;5952312;23;20080;-91
2023/06/28 09:05:10;;;;;;;0.73;0.28;;;;;;;-145.06;0.00;60892.56;5951928;23;20009;-92
2023/06/28 09:08:43;;;;;;;0.75;0.40;;;;;;;-145.06;0.00;60892.56;5952158;23;20313;-92
2023/06/28 09:11:33;;;;;;;2.83;0.40;;;;;;;-145.06;0.00;60892.56;5974705;23;20313;-92
2023/06/28 09:15:03;;;;;;;0.50;0.43;;;;;;;-145.06;0.00;60892.56;5953596;23;20004;-95
2023/06/28 09:18:32;;;;;;;;;;;;;;;;;;;;;
2023/06/28 09:36:11;;;;;;;0.70;0.50;;;;;;;19.52;0.00;60892.56;5977895;23;20021;-92
2023/06/28 09:39:38;;;;;;;0.80;0.40;;;;;;;-145.06;0.00;60892.56;5954795;23;20259;-92
2023/06/28 09:42:30;;;;;;;1.52;0.85;;;;;;;-145.06;0.00;60892.56;5953670;23;20060;-92
2023/06/28 09:45:44;;;;;;;0.70;0.35;;;;;;;-145.06;0.00;60892.56;5953783;23;20005;-93
2023/06/28 09:49:27;;;;;;;0.68;0.40;;;;;;;-145.06;0.00;60892.56;5954368;23;20229;-93
2023/06/28 09:59:54;;;;;;;0.73;0.45;;;;;;;-145.06;0.00;60892.56;5894273;23;20013;-92
2023/06/28 10:02:58;;;;;;;1.20;0.50;;;;;;;-145.06;0.00;60892.56;5953229;23;20020;-92
2023/06/28 10:09:28;;;;;;;;;;;;;;;;;;;;;
2023/06/28 10:13:08;;;;;;;0.70;0.60;;;;;;;-145.06;0.00;60892.56;5957331;23;20013;-93
2023/06/28 10:16:44;;;;;;;0.73;0.40;;;;;;;-145.06;0.00;60892.56;5849103;23;20003;-92
2023/06/28 10:23:05;;;;;;;0.63;0.40;;;;;;;-145.06;0.00;60892.56;5848755;23;20294;-92
2023/06/28 10:26:14;;;;;;;0.85;0.50;;;;;;;-145.06;0.00;60892.56;5956226;23;20009;-93
2023/06/28 10:29:07;;;;;;;0.50;0.40;;;;;;;-145.06;0.00;60892.56;5957324;23;20009;-93
2023/06/28 10:32:03;;;;;;;;;;;;;;;;;;;;;
2023/06/28 10:38:37;;;;;;;0.63;0.50;;;;;;;-145.06;0.00;60892.56;5983363;23;20009;-94
2023/06/28 10:49:11;;;;;;;2.45;0.40;;;;;;;-145.06;0.00;60892.56;5897086;23;20093;-94
2023/06/28 10:59:26;;;;;;;0.40;0.40;;;;;;;-145.06;0.00;60892.56;5719593;24;20012;-93
2023/06/28 11:02:05;;;;;;;0.55;0.40;;;;;;;-145.06;0.00;60892.56;5753044;24;20040;-93
2023/06/28 11:05:16;;;;;;;;;;;;;;;;;;;;;
2023/06/28 12:24:17;;;;;;;1.30;0.60;;;;;;;-145.06;0.00;60892.56;5977535;23;20021;-90
2023/06/28 12:27:03;;;;;;;1.90;0.70;;;;;;;-145.06;0.00;60892.56;5954648;23;20033;-94
2023/06/28 12:29:55;;;;;;;0.90;0.40;;;;;;;-145.06;0.00;60892.56;5953297;23;20005;-92
2023/06/28 12:32:34;;;;;;;0.40;0.30;;;;;;;-145.06;0.00;60892.56;5954198;23;20005;-93
2023/06/28 12:35:33;;;;;;;;;;;;;;;-145.06;0.00;60892.56;5955660;23;20005;-93
2023/06/28 12:38:17;;;;;;;0.45;0.35;;;;;;;-145.06;0.00;60892.56;5954903;23;20367;-93
2023/06/28 12:41:00;;;;;;;1.15;0.63;;;;;;;-145.06;0.00;60892.56;5945412;23;20021;-92
2023/06/28 12:43:39;;;;;;;0.50;0.50;;;;;;;-145.06;0.00;60892.56;5947601;23;20010;-93
2023/06/28 12:47:28;;;;;;;0.68;0.40;;;;;;;-145.06;0.00;60892.56;5947084;23;20021;-93
2023/06/28 12:50:10;;;;;;;0.68;0.40;;;;;;;-145.06;0.00;60892.56;5946796;23;20005;-93
2023/06/28 12:52:54;;;;;;;1.20;0.50;;;;;;;-145.06;0.00;60892.56;5946877;23;20001;-92
2023/06/28 12:55:40;;;;;;;2.33;0.70;;;;;;;-145.06;0.00;60892.56;5947898;23;20014;-93
2023/06/28 12:58:27;;;;;;;0.60;0.55;;;;;;;-145.06;0.00;60892.56;5946789;23;20096;-91
2023/06/28 13:04:13;;;;;;;0.93;0.50;;;;;;;-145.06;0.00;60892.56;5950507;23;20014;-92
2023/06/28 17:09:11;;;;;;;1.42;1.00;;;;;;;-145.06;0.00;60892.56;5976839;23;20444;-94
2023/06/28 17:11:51;;;;;;;1.48;0.85;;;;;;;25.75;0.00;60892.56;5951689;23;20013;-94
2023/06/28 17:14:32;;;;;;;0.90;0.70;;;;;;;-145.06;0.00;60892.56;5951628;23;20321;-94
2023/06/28 17:17:14;;;;;;;1.35;0.82;;;;;;;-145.06;0.00;60892.56;5951875;23;20009;-94
2023/06/28 17:20:02;;;;;;;1.67;0.90;;;;;;;-145.06;0.00;60892.56;5952222;23;20004;-93
2023/06/28 17:23:14;;;;;;;2.60;1.30;;;;;;;-145.06;0.00;60892.56;5950940;23;20221;-94
2023/06/28 17:25:54;;;;;;;0.88;0.68;;;;;;;25.69;0.00;60892.56;5950803;23;20005;-94
2023/06/28 17:28:36;;;;;;;1.58;1.10;;;;;;;25.63;0.00;60892.56;5950168;23;20013;-94
2023/06/28 17:31:18;;;;;;;1.80;0.90;;;;;;;-145.06;0.00;60892.56;5950526;23;20036;-93
2023/06/28 17:33:58;;;;;;;1.67;1.00;;;;;;;-145.06;0.00;60892.56;5950262;23;20009;-93
2023/06/28 17:36:40;;;;;;;1.63;1.00;;;;;;;-145.06;0.00;60892.56;5950077;23;20013;-92
2023/06/28 17:39:19;;;;;;;1.45;0.95;;;;;;;-145.06;0.00;60892.56;5948615;23;20001;-93
2023/06/28 17:41:57;;;;;;;1.20;0.90;;;;;;;-145.06;0.00;60892.56;5947556;23;20009;-92
2023/06/28 17:44:36;;;;;;;1.20;0.85;;;;;;;25.45;0.00;60892.56;5951036;23;20008;-93
2023/06/28 17:47:15;;;;;;;0.90;0.68;;;;;;;-145.06;0.00;60892.56;5950485;23;20009;-93
2023/06/28 17:49:54;;;;;;;0.73;0.73;;;;;;;-145.06;0.00;60892.56;5952029;23;20024;-92
2023/06/28 17:52:33;;;;;;;1.25;0.90;;;;;;;-145.06;0.00;60892.56;5951014;23;20013;-93
2023/06/28 17:55:12;;;;;;;0.95;0.70;;;;;;;-145.06;0.00;60892.56;5950441;23;20009;-93
2023/06/28 17:57:52;;;;;;;1.70;1.10;;;;;;;-145.06;0.00;60892.56;5951454;23;20009;-91
2023/06/28 18:00:32;;;;;;;1.40;1.02;;;;;;;-145.06;0.00;60892.56;5955083;23;20325;-92
2023/06/28 18:03:28;;;;;;;1.15;0.82;;;;;;;-145.06;0.00;60892.56;5956959;23;20005;-93
2023/06/28 18:06:10;;;;;;;1.25;0.75;;;;;;;-145.06;0.00;60892.56;5954058;23;20013;-92
2023/06/28 18:08:50;;;;;;;1.13;0.80;;;;;;;-145.06;0.00;60892.56;5954415;23;20009;-92
2023/06/28 18:11:29;;;;;;;1.20;1.00;;;;;;;-145.06;0.00;60892.56;5953687;23;20096;-92
2023/06/28 18:14:10;;;;;;;1.85;0.95;;;;;;;-145.06;0.00;60892.56;5951449;23;20009;-92
2023/06/28 18:16:50;;;;;;;1.70;1.00;;;;;;;-145.06;0.00;60892.56;5952149;23;20009;-92
2023/06/28 18:19:29;;;;;;;1.17;1.00;;;;;;;-145.06;0.00;60892.56;5954719;23;20009;-90
2023/06/28 18:22:08;;;;;;;1.30;0.90;;;;;;;-145.06;0.00;60892.56;5951962;23;20028;-91
2023/06/28 18:24:47;;;;;;;1.35;0.93;;;;;;;-145.06;0.00;60892.56;5987305;23;20371;-92
2023/06/28 18:27:26;;;;;;;1.27;0.88;;;;;;;-145.06;0.00;60892.56;5968770;23;20056;-92
2023/06/28 18:30:06;;;;;;;1.27;1.00;;;;;;;-145.06;0.00;60892.56;5967258;23;20005;-93
2023/06/28 18:32:47;;;;;;;2.35;1.13;;;;;;;-145.06;0.00;60892.56;5955535;23;20013;-93
2023/06/28 18:35:27;;;;;;;1.27;0.95;;;;;;;-145.06;0.00;60892.56;5957884;23;20005;-95
2023/06/28 18:38:07;;;;;;;1.10;0.95;;;;;;;-145.06;0.00;60892.56;5955452;23;20432;-92
2023/06/28 18:40:47;;;;;;;2.10;1.23;;;;;;;-145.06;0.00;60892.56;5955146;23;20013;-91
2023/06/28 18:43:26;;;;;;;2.17;1.23;;;;;;;-145.06;0.00;60892.56;5953666;23;20028;-91
2023/06/28 18:46:07;;;;;;;1.38;1.10;;;;;;;-145.06;0.00;60892.56;5953894;23;20322;-92
2023/06/28 18:48:46;;;;;;;1.23;0.95;;;;;;;-145.06;0.00;60892.56;5953385;23;20096;-92
2023/06/28 18:51:26;;;;;;;1.80;1.13;;;;;;;-145.06;0.00;60892.56;5952116;23;20584;-94
2023/06/28 18:54:05;;;;;;;;;;;;;;;-145.06;0.00;60892.56;5953302;23;20005;-93
2023/06/28 18:56:44;;;;;;;1.60;1.20;;;;;;;-145.06;0.00;60892.56;5954526;23;19924;-93
2023/06/28 18:59:26;;;;;;;2.00;1.08;;;;;;;-145.06;0.00;60892.56;5955237;23;20511;-93
2023/06/28 19:02:05;;;;;;;2.28;1.35;;;;;;;-145.06;0.00;60892.56;5955371;23;20001;-92
2023/06/28 19:04:44;;;;;;;1.52;1.20;;;;;;;-145.06;0.00;60892.56;5954563;23;20009;-93
2023/06/28 19:07:24;;;;;;;1.63;1.40;;;;;;;-145.06;0.00;60892.56;5954880;23;20427;-93
2023/06/28 19:10:04;;;;;;;2.05;1.50;;;;;;;-145.06;0.00;60892.56;5946478;23;20286;-92
2023/06/28 19:12:44;;;;;;;2.40;1.48;;;;;;;-145.06;0.00;60892.56;5945978;23;20005;-92
2023/06/28 19:15:23;;;;;;;1.45;1.13;;;;;;;-145.06;0.00;60892.56;5945693;23;20010;-93
2023/06/28 19:18:03;;;;;;;1.65;1.20;;;;;;;-145.06;0.00;60892.56;5945255;23;20009;-92
2023/06/28 19:20:44;;;;;;;;;;;;;;;-145.06;0.00;60892.56;5946671;23;20009;-92
2023/06/28 19:23:23;;;;;;;2.10;1.20;;;;;;;-145.06;0.00;60892.56;5946922;23;19905;-93
2023/06/28 19:26:02;;;;;;;1.50;1.20;;;;;;;-145.06;0.00;60892.56;5946995;23;20006;-90
2023/06/28 19:28:41;;;;;;;1.75;1.45;;;;;;;-145.06;0.00;60892.56;5946577;23;20010;-92
2023/06/28 19:31:24;;;;;;;1.60;1.30;;;;;;;-145.06;0.00;60892.56;5947641;23;20005;-92
2023/06/28 19:34:03;;;;;;;2.95;1.58;;;;;;;187.52;0.00;60892.56;5945855;23;20088;-92
2023/06/28 19:36:42;;;;;;;2.00;1.58;;;;;;;-145.06;0.00;60892.56;5946878;23;20005;-93
2023/06/28 19:39:21;;;;;;;1.95;1.42;;;;;;;-145.06;0.00;60892.56;5943212;23;20010;-93
2023/06/28 19:42:00;;;;;;;3.03;1.70;;;;;;;-145.06;0.00;60892.56;5944451;23;20314;-92
2023/06/28 19:44:43;;;;;;;2.88;1.98;;;;;;;-145.06;0.00;60892.56;5943323;23;20009;-91
2023/06/28 19:47:22;;;;;;;2.67;1.80;;;;;;;-145.06;0.00;60892.56;5945681;23;20029;-92
2023/06/28 19:50:01;;;;;;;2.28;1.45;;;;;;;-145.06;0.00;60892.56;5943458;23;20009;-92
2023/06/28 19:52:40;;;;;;;;;;;;;;;-145.06;0.00;60892.56;5936092;23;20013;-93
2023/06/28 19:55:19;;;;;;;2.20;1.55;;;;;;;-145.06;0.00;60892.56;5943817;23;19905;-90
2023/06/28 19:57:58;;;;;;;2.15;1.70;;;;;;;-145.06;0.00;60892.56;5934655;23;20439;-92
2023/06/28 20:00:37;;;;;;;2.38;1.95;;;;;;;-145.06;0.00;60892.56;5935415;23;20009;-91
2023/06/28 20:03:16;;;;;;;2.97;1.90;;;;;;;-145.06;0.00;60892.56;5935509;23;20173;-92
2023/06/28 20:05:55;;;;;;;1.70;1.45;;;;;;;-145.06;0.00;60892.56;5945427;23;20294;-92
2023/06/28 20:08:34;;;;;;;2.90;1.98;;;;;;;-145.06;0.00;60892.56;5934851;23;20013;-91
2023/06/28 20:11:14;;;;;;;2.25;1.88;;;;;;;-145.06;0.00;60892.56;5942169;23;20013;-92
2023/06/28 20:13:53;;;;;;;;;;;;;;;-145.06;0.00;60892.56;5939689;23;20009;-92
2023/06/28 20:16:32;;;;;;;3.60;1.80;;;;;;;-145.06;0.00;60892.56;5944946;23;19948;-92
2023/06/28 20:19:11;;;;;;;2.13;1.58;;;;;;;-145.06;0.00;60892.56;5943627;23;20448;-92
2023/06/28 20:21:50;;;;;;;2.47;1.85;;;;;;;-145.06;0.00;60892.56;5943344;23;20293;-91
2023/06/28 20:24:32;;;;;;;2.92;1.58;;;;;;;-145.06;0.00;60892.56;5941067;23;20008;-91
2023/06/28 20:27:11;;;;;;;2.95;1.95;;;;;;;-145.06;0.00;60892.56;5943454;23;20005;-92
2023/06/28 20:29:50;;;;;;;2.88;1.73;;;;;;;-145.06;0.00;60892.56;5973641;23;20009;-92
2023/06/28 20:32:29;;;;;;;2.50;2.13;;;;;;;-145.06;0.00;60892.56;5941876;23;20444;-92
2023/06/28 20:35:08;;;;;;;2.42;1.98;;;;;;;-145.06;0.00;60892.56;5943428;23;20009;-91
2023/06/28 20:37:47;;;;;;;2.60;2.05;;;;;;;-145.06;0.00;60892.56;5942431;23;20005;-91
2023/06/28 20:40:26;;;;;;;2.80;2.03;;;;;;;-145.06;0.00;60892.56;5941349;23;20013;-92
2023/06/28 20:43:07;;;;;;;3.17;2.20;;;;;;;-145.06;0.00;60892.56;5942713;23;20009;-94
2023/06/28 20:45:46;;;;;;;2.38;1.95;;;;;;;-145.06;0.00;60892.56;5941911;23;20005;-92
2023/06/28 20:48:25;;;;;;;2.20;1.80;;;;;;;-145.06;0.00;60892.56;5942572;23;20009;-91
2023/06/28 20:51:04;;;;;;;2.85;2.20;;;;;;;-145.06;0.00;60892.56;5940224;23;20009;-92
2023/06/28 20:53:44;;;;;;;2.33;1.77;;;;;;;-145.06;0.00;60892.56;5973534;23;20606;-92
2023/06/28 20:56:26;;;;;;;2.47;1.90;;;;;;;-145.06;0.00;60892.56;5944378;23;20005;-92
2023/06/28 20:59:06;;;;;;;2.88;2.15;;;;;;;-145.06;0.00;60892.56;5943543;23;20012;-91
2023/06/28 21:01:47;;;;;;;2.80;2.20;;;;;;;-145.06;0.00;60892.56;5974986;23;20097;-90
2023/06/28 21:04:26;;;;;;;2.67;1.95;;;;;;;-145.06;0.00;60892.56;5942612;23;20005;-92
2023/06/28 21:07:05;;;;;;;2.33;1.73;;;;;;;-145.06;0.00;60892.56;5942020;23;20092;-92
2023/06/28 21:09:44;;;;;;;2.38;1.80;;;;;;;-145.06;0.00;60892.56;5941162;23;20013;-93
2023/06/28 21:12:23;;;;;;;2.38;2.00;;;;;;;-145.06;0.00;60892.56;5943346;23;20238;-92
2023/06/28 21:15:03;;;;;;;2.88;1.90;;;;;;;-145.06;0.00;60892.56;5942577;23;20013;-91
2023/06/28 21:17:42;;;;;;;3.38;2.05;;;;;;;-145.06;0.00;60892.56;5942508;23;20009;-91
2023/06/28 21:20:21;;;;;;;3.15;2.30;;;;;;;-145.06;0.00;60892.56;5941128;23;20084;-91
2023/06/28 21:23:00;;;;;;;3.28;1.77;;;;;;;-145.06;0.00;60892.56;5941716;23;20416;-91
2023/06/28 21:25:40;;;;;;;2.42;1.90;;;;;;;-145.06;0.00;60892.56;5944311;23;20298;-92
2023/06/28 21:28:19;;;;;;;3.03;2.30;;;;;;;-145.06;0.00;60892.56;5943103;23;20009;-92
2023/06/28 21:30:58;;;;;;;2.95;1.98;;;;;;;-145.06;0.00;60892.56;5944176;23;20001;-91
2023/06/28 21:33:37;;;;;;;2.53;1.83;;;;;;;-145.06;0.00;60892.56;5944146;23;20100;-92
2023/06/28 21:36:18;;;;;;;2.35;1.80;;;;;;;-145.06;0.00;60892.56;5943755;23;20008;-91
2023/06/28 21:38:57;;;;;;;2.47;2.00;;;;;;;-145.06;0.00;60892.56;5944483;23;20009;-92
2023/06/28 21:41:36;;;;;;;2.67;2.08;;;;;;;-145.06;0.00;60892.56;5945402;23;20076;-91
2023/06/28 21:44:15;;;;;;;1.95;1.73;;;;;;;-145.06;0.00;60892.56;5945410;23;20013;-92
2023/06/28 21:46:54;;;;;;;3.07;1.90;;;;;;;-145.06;0.00;60892.56;5946091;23;20013;-92
2023/06/28 21:49:34;;;;;;;2.95;2.05;;;;;;;-145.06;0.00;60892.56;5944716;23;20236;-91
2023/06/28 21:52:13;;;;;;;2.65;1.90;;;;;;;-145.06;0.00;60892.56;5944765;23;20084;-93
2023/06/28 21:54:53;;;;;;;;;;;;;;;-145.06;0.00;60892.56;5950429;23;19997;-92
2023/06/28 21:57:31;;;;;;;2.28;1.60;;;;;;;-145.06;0.00;60892.56;5968041;23;19956;-92
2023/06/28 22:00:39;;;;;;;3.72;1.33;;;;;;;-145.06;0.00;60892.56;5959777;23;20012;-92
2023/06/28 22:03:18;;;;;;;1.98;1.52;;;;;;;-145.06;0.00;60892.56;5946074;23;20084;-91
2023/06/28 22:05:57;;;;;;;2.10;1.63;;;;;;;-145.06;0.00;60892.56;5943624;23;20473;-92
2023/06/28 22:08:37;;;;;;;4.00;1.73;;;;;;;-145.06;0.00;60892.56;5945124;23;20400;-93
2023/06/28 22:11:16;;;;;;;2.55;1.90;;;;;;;-145.06;0.00;60892.56;5946157;23;20013;-92
2023/06/28 22:14:06;;;;;;;2.47;1.67;;;;;;;-145.06;0.00;60892.56;5977834;23;20036;-92
2023/06/28 22:16:48;;;;;;;3.38;2.00;;;;;;;-145.06;0.00;60892.56;5945698;23;20013;-91
2023/06/28 22:19:27;;;;;;;2.85;1.83;;;;;;;-145.06;0.00;60892.56;5944654;23;20009;-92
2023/06/28 22:22:06;;;;;;;2.30;1.67;;;;;;;-145.06;0.00;60892.56;5946276;23;20009;-92
2023/06/28 22:24:45;;;;;;;;;;;;;;;-145.06;0.00;60892.56;5944034;23;20009;-93
2023/06/28 22:27:25;;;;;;;1.48;1.38;;;;;;;-145.06;0.00;60892.56;5967567;23;19991;-91
2023/06/28 22:30:05;;;;;;;1.83;1.20;;;;;;;-145.06;0.00;60892.56;5944500;23;20009;-91
2023/06/28 22:32:45;;;;;;;2.17;1.50;;;;;;;-145.06;0.00;60892.56;5945632;23;20005;-91
2023/06/28 22:35:24;;;;;;;1.58;1.27;;;;;;;-145.06;0.00;60892.56;5944117;23;20009;-91
2023/06/28 22:38:03;;;;;;;2.75;1.60;;;;;;;-145.06;0.00;60892.56;5945383;23;20377;-91
2023/06/28 22:40:42;;;;;;;2.58;1.52;;;;;;;-145.06;0.00;60892.56;5944566;23;20037;-93
2023/06/28 22:43:21;;;;;;;2.42;1.60;;;;;;;-145.06;0.00;60892.56;5944354;23;20341;-92
2023/06/28 22:46:00;;;;;;;2.92;1.55;;;;;;;-145.06;0.00;60892.56;5944239;23;20013;-92
2023/06/28 22:48:39;;;;;;;2.00;1.63;;;;;;;-145.06;0.00;60892.56;5945199;23;20004;-91
2023/06/28 22:51:18;;;;;;;2.53;1.90;;;;;;;-145.06;0.00;60892.56;5944693;23;20033;-92
2023/06/28 22:53:57;;;;;;;3.15;1.88;;;;;;;-145.06;0.00;60892.56;5944768;23;20009;-91
2023/06/28 22:56:37;;;;;;;2.33;1.67;;;;;;;-145.06;0.00;60892.56;5975778;23;20013;-92
2023/06/28 22:59:15;;;;;;;2.92;1.90;;;;;;;-145.06;0.00;60892.56;5944270;23;20013;-92
2023/06/28 23:01:54;;;;;;;3.03;1.80;;;;;;;-145.06;0.00;60892.56;5945488;23;20001;-91
2023/06/28 23:04:33;;;;;;;2.10;1.55;;;;;;;-145.06;0.00;60892.56;5943764;23;20320;-92
2023/06/28 23:07:12;;;;;;;2.60;1.70;;;;;;;-145.06;0.00;60892.56;5943654;23;20448;-92
2023/06/28 23:09:52;;;;;;;2.03;1.58;;;;;;;-145.06;0.00;60892.56;5944337;23;20036;-92
2023/06/28 23:12:31;;;;;;;2.30;1.80;;;;;;;-145.06;0.00;60892.56;5943989;23;20317;-92
2023/06/28 23:15:10;;;;;;;2.88;1.80;;;;;;;-145.06;0.00;60892.56;5944088;23;20008;-92
2023/06/28 23:17:49;;;;;;;2.17;1.65;;;;;;;-145.06;0.00;60892.56;5944750;23;20004;-92
2023/06/28 23:20:28;;;;;;;;;;;;;;;-145.06;0.00;60892.56;5943638;23;20088;-92
2023/06/28 23:23:07;;;;;;;2.15;1.70;;;;;;;22.37;0.00;60892.56;5944045;23;19943;-92
2023/06/28 23:25:50;;;;;;;2.42;1.77;;;;;;;-145.06;0.00;60892.56;5943726;23;20009;-92
2023/06/28 23:28:29;;;;;;;1.80;1.40;;;;;;;-145.06;0.00;60892.56;5943232;23;20009;-92
2023/06/28 23:31:09;;;;;;;2.97;1.75;;;;;;;-145.06;0.00;60892.56;5975002;23;20009;-92
2023/06/28 23:33:48;;;;;;;2.67;1.83;;;;;;;-145.06;0.00;60892.56;5944463;23;20012;-92
2023/06/28 23:36:27;;;;;;;2.50;1.90;;;;;;;-145.06;0.00;60892.56;5943120;23;20009;-91
2023/06/28 23:39:06;;;;;;;3.88;1.67;;;;;;;-145.06;0.00;60892.56;5943641;23;20009;-92
2023/06/28 23:41:45;;;;;;;2.38;1.75;;;;;;;-145.06;0.00;60892.56;5943705;23;20000;-91
2023/06/28 23:44:25;;;;;;;1.88;1.40;;;;;;;-145.06;0.00;60892.56;5944773;23;20013;-91
2023/06/28 23:47:05;;;;;;;2.80;1.75;;;;;;;-145.06;0.00;60892.56;5944238;23;20012;-91
2023/06/28 23:49:50;;;;;;;2.20;1.55;;;;;;;-145.06;0.00;60892.56;5943365;23;20005;-91
2023/06/28 23:52:30;;;;;;;3.10;1.92;;;;;;;-145.06;0.00;60892.56;5944076;23;20013;-92
2023/06/28 23:55:09;;;;;;;2.53;1.77;;;;;;;-145.06;0.00;60892.56;5943552;23;20009;-91
2023/06/28 23:57:49;;;;;;;2.53;1.80;;;;;;;-145.06;0.00;60892.56;5975949;23;20009;-91
